Time;durP1;ratioP1;P1;durP2;ratioP2;P2;SDS_P1;SDS_P2;PMS_P1;PMS_P2;Temp;Humidity;BMP_temperature;BMP_pressure;BME280_temperature;BME280_humidity;BME280_pressure;Samples;Min_cycle;Max_cycle;Signal;HPM_P1;HPM_P2
2023/07/20 00:00:15;;;;;;;0.00;0.00;;;;;;;24.04;100.00;101372.31;10450124;28;20492;-79
2023/07/20 00:05:23;;;;;;;0.00;0.00;;;;;;;24.24;100.00;101369.22;10450872;28;20033;-79
2023/07/20 00:10:25;;;;;;;0.08;0.08;;;;;;;24.07;100.00;101377.53;10442658;28;20062;-78
2023/07/20 00:15:26;;;;;;;0.00;0.00;;;;;;;23.90;100.00;101384.91;10448021;28;20045;-79
2023/07/20 00:20:28;;;;;;;0.65;0.10;;;;;;;23.92;100.00;101383.09;10443099;28;20049;-79
2023/07/20 00:25:29;;;;;;;0.00;0.00;;;;;;;23.37;100.00;101380.75;10449177;28;20048;-79
2023/07/20 00:30:31;;;;;;;0.10;0.10;;;;;;;22.52;100.00;101390.13;10435687;28;20049;-79
2023/07/20 00:35:33;;;;;;;1.35;0.40;;;;;;;23.03;100.00;101380.50;10447762;28;20052;-79
2023/07/20 00:40:39;;;;;;;0.00;0.00;;;;;;;23.14;100.00;101374.13;10431403;28;20045;-79
2023/07/20 00:45:41;;;;;;;0.68;0.17;;;;;;;22.70;100.00;101378.44;10431361;28;20073;-80
2023/07/20 00:50:43;;;;;;;0.10;0.10;;;;;;;22.95;100.00;101375.38;10440675;28;20420;-79
2023/07/20 00:55:45;;;;;;;0.00;0.00;;;;;;;22.36;100.00;101378.97;10447810;28;20048;-79
2023/07/20 01:00:47;;;;;;;0.17;0.17;;;;;;;22.54;100.00;101385.72;10444920;28;20041;-79
2023/07/20 01:05:59;;;;;;;0.10;0.10;;;;;;;22.41;100.00;101386.81;10431682;28;20409;-79
2023/07/20 01:11:17;;;;;;;0.00;0.00;;;;;;;22.28;100.00;101393.97;10446907;28;20055;-80
2023/07/20 01:16:19;;;;;;;0.00;0.00;;;;;;;22.29;100.00;101390.47;10443406;28;20508;-80
2023/07/20 01:21:28;;;;;;;0.10;0.10;;;;;;;22.56;100.00;101397.06;10446766;28;20080;-80
2023/07/20 01:26:51;;;;;;;0.00;0.00;;;;;;;22.43;100.00;101391.16;10438421;28;20492;-80
2023/07/20 01:31:56;;;;;;;0.08;0.08;;;;;;;22.01;100.00;101396.97;10433356;28;20041;-79
2023/07/20 01:36:59;;;;;;;0.10;0.00;;;;;;;21.93;100.00;101397.97;10447877;28;20097;-79
2023/07/20 01:42:01;;;;;;;0.20;0.10;;;;;;;22.28;100.00;101399.22;10447910;28;20045;-80
2023/07/20 01:47:03;;;;;;;0.00;0.00;;;;;;;22.25;100.00;101401.88;10429580;28;20067;-79
2023/07/20 01:52:05;;;;;;;0.10;0.10;;;;;;;22.19;100.00;101398.47;10445940;28;20037;-80
2023/07/20 01:57:07;;;;;;;0.13;0.10;;;;;;;22.87;100.00;101400.94;10442314;28;20521;-79
2023/07/20 02:02:09;;;;;;;0.08;0.08;;;;;;;22.10;100.00;101397.75;10446021;28;20040;-79
2023/07/20 02:07:10;;;;;;;0.00;0.00;;;;;;;22.03;100.00;101399.56;10446485;28;20060;-79
2023/07/20 02:12:12;;;;;;;0.00;0.00;;;;;;;22.00;100.00;101403.09;10446430;28;20053;-79
2023/07/20 02:17:14;;;;;;;0.00;0.00;;;;;;;22.05;100.00;101405.66;10445920;28;20472;-79
2023/07/20 02:22:16;;;;;;;0.00;0.00;;;;;;;22.62;100.00;101398.72;10419767;28;20049;-79
2023/07/20 02:27:18;;;;;;;0.00;0.00;;;;;;;22.64;100.00;101399.56;10446850;28;20578;-79
2023/07/20 02:32:20;;;;;;;0.00;0.00;;;;;;;22.62;100.00;101414.47;10454388;28;20041;-79
2023/07/20 02:37:22;;;;;;;0.13;0.10;;;;;;;22.29;100.00;101409.69;10437791;28;20087;-79
2023/07/20 02:42:25;;;;;;;0.05;0.05;;;;;;;21.63;100.00;101405.34;10453538;28;20048;-79
2023/07/20 02:47:28;;;;;;;0.10;0.03;;;;;;;21.37;100.00;101409.09;10436055;28;20056;-79
2023/07/20 02:52:30;;;;;;;0.00;0.00;;;;;;;21.58;100.00;101405.41;10453012;28;20060;-79
2023/07/20 02:57:32;;;;;;;0.08;0.03;;;;;;;22.22;100.00;101420.31;10435543;28;20053;-79
2023/07/20 03:02:33;;;;;;;0.03;0.03;;;;;;;22.54;100.00;101424.22;10452856;28;20056;-79
2023/07/20 03:07:35;;;;;;;0.00;0.00;;;;;;;22.19;100.00;101426.44;10452399;28;20059;-79
2023/07/20 03:12:37;;;;;;;0.00;0.00;;;;;;;22.11;100.00;101423.09;10451635;28;20045;-79
2023/07/20 03:17:39;;;;;;;0.35;0.13;;;;;;;22.16;100.00;101419.50;10434875;28;20061;-79
2023/07/20 03:22:41;;;;;;;0.00;0.00;;;;;;;22.47;100.00;101424.31;10451682;28;20033;-79
2023/07/20 03:27:42;;;;;;;0.00;0.00;;;;;;;22.37;100.00;101433.22;10451681;28;20041;-79
2023/07/20 03:32:44;;;;;;;0.00;0.00;;;;;;;22.39;100.00;101438.47;10451718;28;20051;-79
2023/07/20 03:37:46;;;;;;;0.05;0.05;;;;;;;22.30;100.00;101437.69;10433241;28;20155;-79
2023/07/20 03:42:48;;;;;;;0.10;0.10;;;;;;;21.98;100.00;101436.34;10439031;28;20498;-79
2023/07/20 03:47:49;;;;;;;0.00;0.00;;;;;;;22.07;100.00;101439.75;10449411;28;20059;-78
2023/07/20 03:52:52;;;;;;;0.00;0.00;;;;;;;21.97;100.00;101447.75;10431991;28;20048;-78
2023/07/20 03:57:53;;;;;;;0.00;0.00;;;;;;;21.62;100.00;101451.66;10449836;28;20106;-78
2023/07/20 04:02:55;;;;;;;0.00;0.00;;;;;;;21.98;100.00;101448.63;10437055;28;20127;-79
2023/07/20 04:07:58;;;;;;;0.00;0.00;;;;;;;21.32;100.00;101458.09;10449498;28;20041;-79
2023/07/20 04:13:00;;;;;;;0.00;0.00;;;;;;;21.59;100.00;101453.47;10448816;28;20071;-79
2023/07/20 04:18:02;;;;;;;0.00;0.00;;;;;;;21.73;100.00;101461.19;10448936;28;20037;-79
2023/07/20 04:23:04;;;;;;;0.00;0.00;;;;;;;21.50;100.00;101462.28;10448675;28;20073;-79
2023/07/20 04:28:09;;;;;;;0.00;0.00;;;;;;;21.06;100.00;101459.19;10431346;28;20496;-79
2023/07/20 04:33:14;;;;;;;0.00;0.00;;;;;;;21.27;100.00;101467.72;10448051;28;20718;-79
2023/07/20 04:38:18;;;;;;;0.00;0.00;;;;;;;21.66;100.00;101468.22;10448656;28;20053;-79
2023/07/20 04:43:24;;;;;;;0.00;0.00;;;;;;;22.01;100.00;101462.56;10431624;28;20044;-79
2023/07/20 04:48:25;;;;;;;0.00;0.00;;;;;;;22.00;100.00;101478.34;10447813;28;20144;-79
2023/07/20 04:53:30;;;;;;;0.00;0.00;;;;;;;21.49;100.00;101474.50;10447570;28;20049;-78
2023/07/20 04:58:32;;;;;;;0.00;0.00;;;;;;;21.03;100.00;101472.34;10431224;28;20076;-79
2023/07/20 05:03:34;;;;;;;0.38;0.17;;;;;;;20.88;100.00;101476.81;10447962;28;20048;-79
2023/07/20 05:08:36;;;;;;;0.00;0.00;;;;;;;21.32;100.00;101472.03;10444422;28;20468;-80
2023/07/20 05:13:38;;;;;;;0.20;0.00;;;;;;;21.19;100.00;101480.91;10425454;28;20044;-79
2023/07/20 05:18:40;;;;;;;0.00;0.00;;;;;;;21.28;100.00;101488.69;10436290;28;20553;-80
2023/07/20 05:23:43;;;;;;;0.00;0.00;;;;;;;21.51;100.00;101492.84;10434374;28;20041;-79
2023/07/20 05:28:47;;;;;;;0.00;0.00;;;;;;;21.48;100.00;101483.22;10446981;28;20159;-79
2023/07/20 05:33:49;;;;;;;0.10;0.00;;;;;;;21.41;100.00;101481.56;10446095;28;20047;-80
2023/07/20 05:38:51;;;;;;;0.00;0.00;;;;;;;21.64;100.00;101488.34;10434771;28;20037;-80
2023/07/20 05:43:53;;;;;;;0.00;0.00;;;;;;;21.77;100.00;101494.34;10429812;28;20041;-80
2023/07/20 05:48:55;;;;;;;0.30;0.30;;;;;;;21.97;100.00;101494.09;10446672;28;20103;-80
2023/07/20 05:53:56;;;;;;;0.10;0.10;;;;;;;21.79;100.00;101503.91;10445648;28;20041;-79
2023/07/20 05:58:58;;;;;;;0.13;0.00;;;;;;;21.51;100.00;101514.66;10437375;28;20053;-80
2023/07/20 06:04:00;;;;;;;0.00;0.00;;;;;;;21.82;100.00;101518.75;10450253;28;20076;-79
2023/07/20 06:09:09;;;;;;;0.10;0.10;;;;;;;22.18;100.00;101509.56;10441639;28;20567;-79
2023/07/20 06:14:11;;;;;;;0.00;0.00;;;;;;;22.10;100.00;101519.28;10439952;28;20049;-80
2023/07/20 06:19:22;;;;;;;0.00;0.00;;;;;;;22.39;100.00;101517.22;10446339;28;20051;-80
2023/07/20 06:24:24;;;;;;;0.00;0.00;;;;;;;22.27;100.00;101520.84;10437080;28;20138;-80
2023/07/20 06:29:25;;;;;;;0.00;0.00;;;;;;;22.17;100.00;101533.22;10448153;28;20124;-80
2023/07/20 06:34:27;;;;;;;0.00;0.00;;;;;;;23.12;100.00;101528.34;10432795;28;20055;-80
2023/07/20 06:39:29;;;;;;;0.10;0.00;;;;;;;22.46;100.00;101529.38;10444305;28;20496;-80
2023/07/20 06:44:34;;;;;;;0.00;0.00;;;;;;;22.87;100.00;101530.50;10448568;28;20041;-79
2023/07/20 06:49:35;;;;;;;0.00;0.00;;;;;;;22.38;100.00;101524.19;10442472;28;20057;-80
2023/07/20 06:54:37;;;;;;;0.00;0.00;;;;;;;22.87;100.00;101521.78;10421595;28;20048;-80
2023/07/20 06:59:44;;;;;;;0.00;0.00;;;;;;;22.87;100.00;101521.78;10437006;28;20049;-80
2023/07/20 07:04:47;;;;;;;0.20;0.00;;;;;;;22.90;100.00;101526.97;10449996;28;20045;-80
2023/07/20 07:09:49;;;;;;;0.00;0.00;;;;;;;23.72;100.00;101529.06;10432276;28;20040;-80
2023/07/20 07:14:50;;;;;;;0.13;0.10;;;;;;;24.05;100.00;101534.59;10443802;28;20396;-79
2023/07/20 07:19:56;;;;;;;0.00;0.00;;;;;;;24.59;100.00;101529.94;10444133;28;20049;-79
2023/07/20 07:24:59;;;;;;;0.00;0.00;;;;;;;24.87;100.00;101534.59;10443479;28;20045;-79
2023/07/20 07:30:01;;;;;;;0.00;0.00;;;;;;;24.15;100.00;101542.31;10440660;28;20049;-80
2023/07/20 07:35:04;;;;;;;0.00;0.00;;;;;;;23.86;100.00;101546.38;10430247;28;20529;-79
2023/07/20 07:40:07;;;;;;;0.10;0.10;;;;;;;24.62;100.00;101548.31;10438197;28;20088;-79
2023/07/20 07:45:09;;;;;;;0.00;0.00;;;;;;;25.09;100.00;101560.44;10441548;28;20045;-80
2023/07/20 07:50:11;;;;;;;0.00;0.00;;;;;;;25.34;100.00;101558.91;10433266;28;20060;-79
2023/07/20 07:55:13;;;;;;;0.00;0.00;;;;;;;24.63;100.00;101557.94;10433426;28;20609;-79
2023/07/20 08:00:15;;;;;;;0.08;0.03;;;;;;;25.70;100.00;101559.78;10429744;28;20046;-80
2023/07/20 08:05:17;;;;;;;0.10;0.10;;;;;;;25.90;100.00;101565.38;10437836;28;20084;-79
2023/07/20 08:10:18;;;;;;;0.10;0.03;;;;;;;25.73;100.00;101571.13;10444582;28;20466;-79
2023/07/20 08:15:20;;;;;;;0.00;0.00;;;;;;;26.09;100.00;101572.81;10440129;28;20424;-79
2023/07/20 08:20:26;;;;;;;0.00;0.00;;;;;;;27.60;100.00;101571.63;10431641;28;20516;-80
2023/07/20 08:25:28;;;;;;;7.80;0.88;;;;;;;26.27;100.00;101566.97;10445093;28;20069;-79
2023/07/20 08:30:39;;;;;;;0.10;0.00;;;;;;;26.54;100.00;101572.38;10439858;28;20044;-79
2023/07/20 08:35:42;;;;;;;0.03;0.03;;;;;;;28.41;100.00;101551.03;10439571;28;20110;-79
2023/07/20 08:40:46;;;;;;;0.00;0.00;;;;;;;27.45;100.00;101565.94;10437094;28;20112;-79
2023/07/20 08:45:49;;;;;;;0.15;0.15;;;;;;;27.52;98.20;101572.75;10447926;28;20032;-80
2023/07/20 08:50:53;;;;;;;0.00;0.00;;;;;;;28.77;96.99;101567.31;10445761;28;20049;-79
2023/07/20 08:55:55;;;;;;;0.13;0.00;;;;;;;27.76;100.00;101571.97;10437662;28;20108;-80
2023/07/20 09:00:59;;;;;;;0.00;0.00;;;;;;;27.70;90.36;101575.69;10434542;28;20041;-78
2023/07/20 09:06:01;;;;;;;0.00;0.00;;;;;;;28.82;95.27;101572.38;10421147;28;20042;-79
2023/07/20 09:11:03;;;;;;;0.00;0.00;;;;;;;28.86;91.50;101576.66;10438375;28;20137;-78
2023/07/20 09:16:04;;;;;;;0.00;0.00;;;;;;;28.54;95.00;101575.28;10448965;28;20060;-79
2023/07/20 09:21:07;;;;;;;0.00;0.00;;;;;;;29.62;83.79;101564.69;10442410;28;20040;-78
2023/07/20 09:26:14;;;;;;;0.00;0.00;;;;;;;30.20;92.36;101561.19;10441661;28;20068;-79
2023/07/20 09:31:22;;;;;;;0.00;0.00;;;;;;;29.75;87.98;101564.06;10433250;28;20404;-78
2023/07/20 09:36:26;;;;;;;0.00;0.00;;;;;;;29.53;84.91;101571.25;10452275;28;20557;-78
2023/07/20 09:41:41;;;;;;;0.00;0.00;;;;;;;30.54;92.23;101567.63;10430755;28;20049;-79
2023/07/20 09:46:48;;;;;;;0.00;0.00;;;;;;;29.79;87.94;101571.91;10444858;28;20055;-78
2023/07/20 09:51:54;;;;;;;0.00;0.00;;;;;;;28.39;88.96;101577.59;10432141;28;20056;-79
2023/07/20 09:56:57;;;;;;;0.00;0.00;;;;;;;29.69;87.88;101566.16;10424541;28;20068;-78
2023/07/20 10:02:01;;;;;;;0.00;0.00;;;;;;;28.99;77.12;101561.13;10449156;28;20123;-78
2023/07/20 10:07:10;;;;;;;0.00;0.00;;;;;;;29.64;81.01;101553.06;10451292;28;20414;-78
2023/07/20 10:12:12;;;;;;;0.00;0.00;;;;;;;27.86;79.75;101553.03;10452693;28;20064;-78
2023/07/20 10:17:18;;;;;;;0.00;0.00;;;;;;;28.57;84.22;101543.31;10425642;28;20086;-77
2023/07/20 10:22:26;;;;;;;0.00;0.00;;;;;;;28.59;82.39;101546.78;10426525;28;20506;-78
2023/07/20 10:27:28;;;;;;;0.00;0.00;;;;;;;28.75;78.51;101547.94;10429511;28;20432;-78
2023/07/20 10:32:30;;;;;;;0.00;0.00;;;;;;;29.33;78.95;101543.78;10438459;28;20412;-78
2023/07/20 10:37:59;;;;;;;0.00;0.00;;;;;;;29.06;80.24;101545.78;10437918;28;20048;-78
2023/07/20 10:43:09;;;;;;;0.00;0.00;;;;;;;30.00;82.04;101539.09;10441693;28;20571;-78
2023/07/20 10:48:15;;;;;;;0.10;0.10;;;;;;;30.00;82.00;101533.78;10443316;28;20036;-78
2023/07/20 10:53:18;;;;;;;0.00;0.00;;;;;;;28.29;86.46;101533.81;10449458;28;20124;-78
2023/07/20 10:58:26;;;;;;;0.00;0.00;;;;;;;28.37;89.64;101528.25;10449593;28;20403;-78
2023/07/20 11:03:39;;;;;;;0.00;0.00;;;;;;;30.62;77.36;101517.59;10432146;28;20120;-79
2023/07/20 11:08:42;;;;;;;0.08;0.00;;;;;;;30.66;80.99;101515.66;10455170;28;20663;-79
2023/07/20 11:14:04;;;;;;;0.00;0.00;;;;;;;30.68;85.72;101513.78;10452747;28;20459;-78
2023/07/20 11:19:14;;;;;;;0.00;0.00;;;;;;;29.37;86.54;101524.16;10454382;28;20037;-78
2023/07/20 11:24:40;;;;;;;0.65;0.20;;;;;;;28.61;82.76;101503.38;10428141;28;20040;-78
2023/07/20 11:29:41;;;;;;;0.10;0.10;;;;;;;29.68;82.64;101501.53;10452135;28;20132;-78
2023/07/20 11:34:47;;;;;;;0.00;0.00;;;;;;;29.98;77.15;101495.78;10440808;28;20049;-77
2023/07/20 11:39:49;;;;;;;0.00;0.00;;;;;;;29.15;81.31;101496.81;10427755;28;20128;-78
2023/07/20 11:44:52;;;;;;;0.00;0.00;;;;;;;28.89;82.61;101496.13;10445484;28;20106;-77
2023/07/20 11:49:54;;;;;;;0.00;0.00;;;;;;;29.98;86.68;101487.81;10426697;28;20514;-78
2023/07/20 11:54:56;;;;;;;0.08;0.08;;;;;;;30.16;83.72;101482.56;10430163;28;20069;-78
2023/07/20 12:00:01;;;;;;;0.08;0.00;;;;;;;30.02;84.56;101476.13;10447571;28;20492;-77
2023/07/20 12:05:06;;;;;;;0.00;0.00;;;;;;;30.03;86.64;101469.00;10454640;28;20268;-77
2023/07/20 12:10:09;;;;;;;0.00;0.00;;;;;;;29.93;88.32;101478.38;10437513;28;20111;-77
2023/07/20 12:15:16;;;;;;;0.15;0.08;;;;;;;30.65;83.33;101458.94;10453672;28;20041;-78
2023/07/20 12:20:31;;;;;;;0.03;0.03;;;;;;;29.18;80.75;101464.81;10451776;28;20118;-78
2023/07/20 12:25:44;;;;;;;0.00;0.00;;;;;;;29.37;80.12;101473.75;10446477;28;20431;-78
2023/07/20 12:30:51;;;;;;;0.00;0.00;;;;;;;29.08;79.62;101470.53;10454046;28;20130;-78
2023/07/20 12:35:58;;;;;;;0.10;0.00;;;;;;;28.03;83.12;101474.75;10451569;28;20136;-77
2023/07/20 12:41:03;;;;;;;0.00;0.00;;;;;;;28.97;85.30;101473.63;10454220;28;20396;-78
2023/07/20 12:46:04;;;;;;;0.00;0.00;;;;;;;28.87;79.90;101471.44;10452641;28;20047;-78
2023/07/20 12:51:07;;;;;;;0.00;0.00;;;;;;;27.86;87.20;101478.91;10451864;28;20095;-78
2023/07/20 12:56:09;;;;;;;0.00;0.00;;;;;;;28.31;83.43;101471.03;10442396;28;20037;-78
2023/07/20 13:01:13;;;;;;;0.00;0.00;;;;;;;27.77;86.09;101473.09;10449721;28;20071;-77
2023/07/20 13:06:15;;;;;;;0.00;0.00;;;;;;;27.77;85.36;101462.50;10450365;28;20041;-77
2023/07/20 13:11:20;;;;;;;0.00;0.00;;;;;;;27.81;86.75;101462.31;10448038;28;20045;-78
2023/07/20 13:16:24;;;;;;;0.00;0.00;;;;;;;27.46;86.89;101459.19;10450323;28;20112;-77
2023/07/20 13:21:26;;;;;;;0.00;0.00;;;;;;;27.34;88.98;101462.25;10431943;28;20048;-77
2023/07/20 13:26:28;;;;;;;0.00;0.00;;;;;;;28.23;88.31;101454.59;10464983;28;20143;-78
2023/07/20 13:31:30;;;;;;;0.00;0.00;;;;;;;28.86;90.61;101451.16;10449215;28;20052;-78
2023/07/20 13:36:37;;;;;;;0.10;0.00;;;;;;;28.59;89.96;101451.38;10450271;28;20407;-78
2023/07/20 13:41:39;;;;;;;0.00;0.00;;;;;;;28.16;84.15;101444.25;10449163;28;20785;-78
2023/07/20 13:46:40;;;;;;;0.00;0.00;;;;;;;28.54;88.23;101437.44;10451884;28;20047;-78
2023/07/20 13:51:45;;;;;;;0.00;0.00;;;;;;;27.89;84.47;101429.41;10429590;28;20099;-78
2023/07/20 13:56:47;;;;;;;0.10;0.10;;;;;;;28.92;85.84;101433.19;10449975;28;20041;-78
2023/07/20 14:01:49;;;;;;;0.00;0.00;;;;;;;28.69;81.90;101420.94;10446498;28;20049;-78
2023/07/20 14:06:51;;;;;;;0.00;0.00;;;;;;;28.67;88.42;101417.44;10449039;28;20049;-77
2023/07/20 14:11:53;;;;;;;0.10;0.10;;;;;;;28.64;81.38;101409.59;10450301;28;20049;-77
2023/07/20 14:16:58;;;;;;;0.00;0.00;;;;;;;29.14;86.53;101405.72;10438089;28;20052;-77
2023/07/20 14:21:59;;;;;;;0.00;0.00;;;;;;;28.21;92.42;101403.44;10433294;28;20053;-77
2023/07/20 14:27:01;;;;;;;0.00;0.00;;;;;;;28.97;93.85;101403.84;10465536;28;20044;-78
2023/07/20 14:32:06;;;;;;;0.00;0.00;;;;;;;29.17;91.96;101400.31;10454074;28;20131;-78
2023/07/20 14:37:07;;;;;;;0.00;0.00;;;;;;;28.90;92.90;101402.38;10424835;28;20198;-77
2023/07/20 14:42:09;;;;;;;0.00;0.00;;;;;;;28.46;90.62;101401.53;10432958;28;20053;-79
2023/07/20 14:47:34;;;;;;;0.00;0.00;;;;;;;28.56;95.86;101399.34;10428222;28;20045;-77
2023/07/20 14:52:37;;;;;;;0.10;0.00;;;;;;;28.70;87.61;101389.97;10442353;28;20084;-77
2023/07/20 14:57:49;;;;;;;0.00;0.00;;;;;;;28.68;86.10;101391.78;10443355;28;20044;-77
2023/07/20 15:02:55;;;;;;;0.00;0.00;;;;;;;28.44;90.20;101390.13;10452859;28;20045;-77
2023/07/20 15:07:57;;;;;;;0.00;0.00;;;;;;;28.72;90.99;101394.28;10438731;28;20049;-78
2023/07/20 15:12:59;;;;;;;0.00;0.00;;;;;;;27.86;91.94;101393.28;10430412;28;20059;-78
2023/07/20 15:18:00;;;;;;;0.00;0.00;;;;;;;28.96;91.53;101383.53;10447913;28;20045;-77
2023/07/20 15:23:02;;;;;;;0.00;0.00;;;;;;;28.33;90.02;101376.47;10433236;28;20083;-78
2023/07/20 15:28:04;;;;;;;0.08;0.08;;;;;;;28.41;87.09;101379.63;10444904;28;20042;-77
2023/07/20 15:33:06;;;;;;;0.00;0.00;;;;;;;28.13;90.71;101372.84;10408299;28;20667;-77
2023/07/20 15:38:11;;;;;;;0.00;0.00;;;;;;;29.36;83.55;101365.88;10428653;28;20048;-77
2023/07/20 15:43:12;;;;;;;0.00;0.00;;;;;;;28.68;89.32;101366.16;10429447;28;20099;-77
2023/07/20 15:48:17;;;;;;;0.00;0.00;;;;;;;28.11;87.78;101361.44;10428057;28;20045;-77
2023/07/20 15:53:19;;;;;;;0.00;0.00;;;;;;;27.49;84.74;101358.53;10445038;28;20063;-77
2023/07/20 15:58:20;;;;;;;0.00;0.00;;;;;;;27.88;86.40;101353.53;10457660;28;20045;-77
2023/07/20 16:03:25;;;;;;;0.00;0.00;;;;;;;28.45;84.89;101343.25;10432376;28;20049;-77
2023/07/20 16:08:37;;;;;;;0.00;0.00;;;;;;;29.13;89.90;101338.56;10451741;28;20048;-78
2023/07/20 16:13:39;;;;;;;0.00;0.00;;;;;;;28.65;86.25;101342.41;10416936;28;20049;-78
2023/07/20 16:18:41;;;;;;;0.15;0.00;;;;;;;29.13;91.57;101335.03;10436781;28;20082;-78
2023/07/20 16:23:43;;;;;;;0.00;0.00;;;;;;;28.90;92.03;101328.97;10419677;28;20040;-77
2023/07/20 16:28:45;;;;;;;0.00;0.00;;;;;;;29.10;83.61;101330.72;10425044;28;20038;-78
2023/07/20 16:33:47;;;;;;;0.00;0.00;;;;;;;29.26;91.83;101322.06;10430438;28;20050;-78
2023/07/20 16:38:48;;;;;;;0.00;0.00;;;;;;;28.91;83.49;101317.44;10429065;28;20157;-78
2023/07/20 16:43:52;;;;;;;0.00;0.00;;;;;;;28.17;84.81;101313.53;10428749;28;20046;-78
2023/07/20 16:48:56;;;;;;;0.00;0.00;;;;;;;28.90;89.39;101309.56;10432955;28;20419;-78
2023/07/20 16:54:00;;;;;;;0.00;0.00;;;;;;;29.29;90.27;101304.22;10428574;28;20547;-77
2023/07/20 16:59:02;;;;;;;0.00;0.00;;;;;;;28.41;86.38;101305.44;10454686;28;20049;-78
2023/07/20 17:04:03;;;;;;;0.00;0.00;;;;;;;28.22;85.22;101299.22;10412759;28;20053;-77
2023/07/20 17:09:05;;;;;;;0.00;0.00;;;;;;;27.45;87.67;101304.00;10438456;28;20054;-77
2023/07/20 17:14:07;;;;;;;0.00;0.00;;;;;;;28.50;88.27;101298.91;10426891;28;20078;-77
2023/07/20 17:19:09;;;;;;;0.00;0.00;;;;;;;28.32;84.55;101289.97;10446638;28;20123;-78
2023/07/20 17:24:11;;;;;;;0.10;0.05;;;;;;;28.40;87.11;101293.16;10454749;28;20472;-78
2023/07/20 17:29:33;;;;;;;0.00;0.00;;;;;;;29.13;84.24;101285.50;10454211;28;20064;-78
2023/07/20 17:34:35;;;;;;;0.00;0.00;;;;;;;28.72;91.92;101288.22;10427344;28;20447;-78
2023/07/20 17:39:36;;;;;;;0.00;0.00;;;;;;;28.43;99.11;101281.53;10438885;28;20061;-78
2023/07/20 17:44:41;;;;;;;0.00;0.00;;;;;;;28.42;100.00;101279.81;10425291;28;20045;-78
2023/07/20 17:49:43;;;;;;;0.00;0.00;;;;;;;27.61;100.00;101274.28;10412777;28;20041;-78
2023/07/20 17:54:46;;;;;;;0.00;0.00;;;;;;;28.11;100.00;101276.66;10453031;28;20068;-78
2023/07/20 17:59:48;;;;;;;0.00;0.00;;;;;;;28.34;100.00;101272.19;10459500;28;20060;-78
2023/07/20 18:04:53;;;;;;;0.00;0.00;;;;;;;28.43;100.00;101271.78;10449792;28;20040;-78
2023/07/20 18:09:55;;;;;;;0.00;0.00;;;;;;;28.36;95.59;101275.63;10446304;28;20461;-78
2023/07/20 18:14:57;;;;;;;0.00;0.00;;;;;;;28.40;95.57;101266.66;10448294;28;20076;-78
2023/07/20 18:19:59;;;;;;;0.00;0.00;;;;;;;27.61;98.05;101271.63;10434599;28;20069;-78
2023/07/20 18:25:00;;;;;;;0.00;0.00;;;;;;;27.80;100.00;101267.34;10420692;28;20053;-78
2023/07/20 18:30:04;;;;;;;0.00;0.00;;;;;;;27.45;100.00;101271.41;10437111;28;20081;-78
2023/07/20 18:35:06;;;;;;;0.00;0.00;;;;;;;27.63;100.00;101264.50;10429607;28;20049;-78
2023/07/20 18:40:08;;;;;;;0.00;0.00;;;;;;;27.83;100.00;101267.19;10403249;28;20583;-78
2023/07/20 18:45:11;;;;;;;0.00;0.00;;;;;;;27.63;100.00;101267.16;10436950;28;20551;-78
2023/07/20 18:50:13;;;;;;;0.00;0.00;;;;;;;26.94;100.00;101271.53;10423972;28;20053;-77
2023/07/20 18:55:15;;;;;;;0.00;0.00;;;;;;;27.33;100.00;101272.72;10461057;28;20498;-78
2023/07/20 19:00:18;;;;;;;0.00;0.00;;;;;;;27.03;100.00;101265.03;10423688;28;20520;-78
2023/07/20 19:05:20;;;;;;;0.00;0.00;;;;;;;26.74;100.00;101277.50;10440346;28;20492;-78
2023/07/20 19:10:21;;;;;;;0.00;0.00;;;;;;;25.90;100.00;101282.94;10427220;28;20046;-78
2023/07/20 19:15:23;;;;;;;0.00;0.00;;;;;;;26.52;100.00;101275.63;10444369;28;20045;-78
2023/07/20 19:20:25;;;;;;;0.00;0.00;;;;;;;26.01;100.00;101279.09;10453489;28;20052;-78
2023/07/20 19:25:27;;;;;;;0.17;0.10;;;;;;;25.90;100.00;101276.81;10459234;28;20496;-78
2023/07/20 19:30:29;;;;;;;0.00;0.00;;;;;;;25.77;100.00;101286.91;10436720;28;20128;-78
2023/07/20 19:35:35;;;;;;;0.00;0.00;;;;;;;25.84;100.00;101285.78;10457788;28;20048;-78
2023/07/20 19:40:38;;;;;;;0.00;0.00;;;;;;;24.48;100.00;101287.00;10438398;28;20497;-79
2023/07/20 19:45:41;;;;;;;0.00;0.00;;;;;;;25.24;100.00;101288.47;10457723;28;20045;-78
2023/07/20 19:50:54;;;;;;;0.00;0.00;;;;;;;24.82;100.00;101294.06;10447982;28;20072;-78
2023/07/20 19:56:40;;;;;;;0.00;0.00;;;;;;;25.21;100.00;101301.72;10308068;28;20769;-80
2023/07/20 20:01:44;;;;;;;0.00;0.00;;;;;;;25.06;100.00;101302.19;10310566;28;20058;-80
2023/07/20 20:06:48;;;;;;;0.00;0.00;;;;;;;25.63;100.00;101304.03;10404881;28;20049;-79
2023/07/20 20:11:50;;;;;;;0.00;0.00;;;;;;;25.12;100.00;101312.56;10441813;28;20135;-80
2023/07/20 20:16:52;;;;;;;0.10;0.10;;;;;;;25.14;100.00;101313.34;10446034;28;20486;-80
2023/07/20 20:22:00;;;;;;;0.00;0.00;;;;;;;25.44;100.00;101316.91;10423187;28;20114;-80
2023/07/20 20:27:26;;;;;;;0.00;0.00;;;;;;;24.64;100.00;101313.84;10453362;28;20031;-80
2023/07/20 20:32:28;;;;;;;0.00;0.00;;;;;;;24.43;100.00;101320.50;10435326;28;20056;-80
2023/07/20 20:37:29;;;;;;;0.00;0.00;;;;;;;24.95;100.00;101316.53;10446844;28;20048;-80
2023/07/20 20:42:31;;;;;;;0.00;0.00;;;;;;;25.37;100.00;101311.81;10448668;28;20045;-80
2023/07/20 20:47:34;;;;;;;0.00;0.00;;;;;;;24.89;100.00;101303.53;10432632;28;20045;-80
2023/07/20 20:52:36;;;;;;;0.03;0.00;;;;;;;24.90;100.00;101305.25;10456387;28;20067;-80
2023/07/20 20:57:38;;;;;;;0.00;0.00;;;;;;;24.44;100.00;101302.03;10438931;28;20514;-80
2023/07/20 21:02:40;;;;;;;0.00;0.00;;;;;;;23.71;100.00;101302.88;10432519;28;20059;-80
2023/07/20 21:07:42;;;;;;;0.00;0.00;;;;;;;24.77;100.00;101303.84;10425360;28;20127;-80
2023/07/20 21:12:44;;;;;;;0.10;0.10;;;;;;;25.22;100.00;101305.22;10422808;28;20446;-79
2023/07/20 21:17:46;;;;;;;0.00;0.00;;;;;;;25.07;100.00;101293.34;10420956;28;20042;-80
2023/07/20 21:22:48;;;;;;;0.00;0.00;;;;;;;24.06;100.00;101291.56;10438039;28;20067;-80
2023/07/20 21:27:50;;;;;;;0.30;0.00;;;;;;;24.32;100.00;101294.47;10431926;28;20045;-79
2023/07/20 21:32:52;;;;;;;0.00;0.00;;;;;;;24.28;100.00;101296.31;10422827;28;20151;-79
2023/07/20 21:37:54;;;;;;;0.00;0.00;;;;;;;23.75;100.00;101294.91;10450412;28;20049;-80
2023/07/20 21:42:57;;;;;;;0.00;0.00;;;;;;;23.44;100.00;101302.63;10445253;28;20562;-79
2023/07/20 21:47:59;;;;;;;0.00;0.00;;;;;;;23.64;100.00;101294.28;10446838;28;20037;-80
2023/07/20 21:53:01;;;;;;;0.77;0.00;;;;;;;23.43;100.00;101295.63;10445517;28;20044;-80
2023/07/20 21:58:02;;;;;;;0.00;0.00;;;;;;;23.69;100.00;101289.78;10437942;28;20510;-79
2023/07/20 22:03:04;;;;;;;0.00;0.00;;;;;;;23.27;100.00;101298.56;10444629;28;20058;-79
2023/07/20 22:08:06;;;;;;;0.00;0.00;;;;;;;23.33;100.00;101294.97;10463671;28;20091;-80
2023/07/20 22:13:08;;;;;;;0.10;0.10;;;;;;;22.19;100.00;101298.75;10447202;28;20045;-80
2023/07/20 22:18:11;;;;;;;0.08;0.08;;;;;;;22.80;100.00;101295.09;10426476;28;20033;-79
2023/07/20 22:23:36;;;;;;;0.00;0.00;;;;;;;22.85;100.00;101292.38;10435404;28;20055;-79
2023/07/20 22:28:38;;;;;;;0.00;0.00;;;;;;;22.66;100.00;101292.75;10434400;28;20044;-79
2023/07/20 22:33:42;;;;;;;0.00;0.00;;;;;;;22.36;100.00;101305.47;10445435;28;20068;-79
2023/07/20 22:38:43;;;;;;;0.00;0.00;;;;;;;21.96;100.00;101295.63;10428306;28;20048;-79
2023/07/20 22:43:47;;;;;;;0.20;0.10;;;;;;;21.92;100.00;101292.19;10443393;28;20080;-79
2023/07/20 22:48:49;;;;;;;0.00;0.00;;;;;;;22.19;100.00;101297.88;10448981;28;20056;-79
2023/07/20 22:53:52;;;;;;;0.00;0.00;;;;;;;22.36;100.00;101297.59;10448422;28;20055;-79
2023/07/20 22:58:53;;;;;;;0.13;0.10;;;;;;;22.14;100.00;101295.34;10428782;28;20044;-79
2023/07/20 23:03:57;;;;;;;0.22;0.10;;;;;;;21.63;100.00;101285.59;10439951;28;20073;-80